Time;durP1;ratioP1;P1;durP2;ratioP2;P2;SDS_P1;SDS_P2;PMS_P1;PMS_P2;Temp;Humidity;BMP_temperature;BMP_pressure;BME280_temperature;BME280_humidity;BME280_pressure;Samples;Min_cycle;Max_cycle;Signal;HPM_P1;HPM_P2
2021/01/20 00:00:23;;;;;;;8.68;3.38;;;-0.90;93.80;;;;;;5127565;27;27405;-47
2021/01/20 00:03:08;;;;;;;6.55;3.35;;;-0.90;93.90;;;;;;5127609;27;27369;-49
2021/01/20 00:05:52;;;;;;;5.80;2.55;;;-0.90;93.80;;;;;;5126909;27;27577;-47
2021/01/20 00:08:37;;;;;;;5.53;3.55;;;-0.90;93.90;;;;;;5127342;27;27365;-46
2021/01/20 00:11:25;;;;;;;5.53;3.10;;;-1.00;93.90;;;;;;5127654;27;27379;-47
2021/01/20 00:14:14;;;;;;;7.38;4.43;;;-1.00;94.00;;;;;;5127300;27;27448;-47
2021/01/20 00:16:59;;;;;;;6.32;3.85;;;-1.00;93.90;;;;;;5127148;27;27355;-47
2021/01/20 00:19:43;;;;;;;6.13;3.65;;;-1.00;93.90;;;;;;5127531;27;27398;-49
2021/01/20 00:22:28;;;;;;;6.28;3.75;;;-1.00;94.00;;;;;;5126655;27;27006;-48
2021/01/20 00:25:13;;;;;;;6.43;3.67;;;-1.00;93.70;;;;;;5127104;27;27418;-47
2021/01/20 00:27:58;;;;;;;6.65;3.92;;;-1.10;93.80;;;;;;5127279;27;27443;-49
2021/01/20 00:30:42;;;;;;;6.10;3.70;;;-1.10;93.90;;;;;;5127030;27;27469;-47
2021/01/20 00:33:27;;;;;;;5.75;3.83;;;-1.10;93.80;;;;;;5127017;27;27347;-47
2021/01/20 00:36:11;;;;;;;4.40;3.30;;;-1.10;93.90;;;;;;5127218;27;27436;-47
2021/01/20 00:38:56;;;;;;;6.70;4.00;;;-1.10;93.90;;;;;;5127132;27;27875;-48
2021/01/20 00:41:40;;;;;;;4.85;3.03;;;-1.10;93.90;;;;;;5127060;27;27466;-46
2021/01/20 00:44:25;;;;;;;4.05;3.00;;;-1.20;93.60;;;;;;5126826;27;27442;-46
2021/01/20 00:47:09;;;;;;;3.85;2.70;;;-1.20;93.80;;;;;;5126718;27;27435;-47
2021/01/20 00:49:53;;;;;;;7.50;3.05;;;-1.20;93.80;;;;;;5126248;27;27468;-43
2021/01/20 00:52:38;;;;;;;4.95;3.00;;;-1.20;93.80;;;;;;5127034;27;27643;-48
2021/01/20 00:55:22;;;;;;;3.80;2.70;;;-1.20;93.80;;;;;;5126988;27;27322;-47
2021/01/20 00:58:10;;;;;;;4.90;2.80;;;-1.30;93.80;;;;;;5122505;27;27402;-47
2021/01/20 01:00:54;;;;;;;7.25;2.90;;;-1.30;93.90;;;;;;5126884;27;27510;-48
2021/01/20 01:03:40;;;;;;;3.00;2.55;;;-1.30;93.90;;;;;;5122335;27;27655;-48
2021/01/20 01:06:24;;;;;;;4.32;3.10;;;-1.30;94.00;;;;;;5122727;27;27417;-46
2021/01/20 01:09:13;;;;;;;3.20;2.40;;;-1.30;94.00;;;;;;5122270;27;27374;-47
2021/01/20 01:11:58;;;;;;;3.40;2.30;;;-1.30;93.90;;;;;;5121904;27;27344;-48
2021/01/20 01:14:42;;;;;;;3.25;2.60;;;-1.30;94.00;;;;;;5122215;27;27459;-47
2021/01/20 01:17:37;;;;;;;3.90;2.53;;;-1.30;93.90;;;;;;5122485;27;27406;-46
2021/01/20 01:20:21;;;;;;;4.40;2.67;;;-1.30;94.00;;;;;;5122140;27;27472;-46
2021/01/20 01:23:06;;;;;;;3.55;2.38;;;-1.30;93.90;;;;;;5122360;27;27448;-46
2021/01/20 01:25:53;;;;;;;4.03;2.22;;;-1.30;94.00;;;;;;5122252;27;27425;-45
2021/01/20 01:28:39;;;;;;;3.63;2.80;;;-1.30;94.00;;;;;;5122086;27;27341;-47
2021/01/20 01:31:40;;;;;;;5.35;2.88;;;-1.40;94.00;;;;;;5122985;27;27407;-48
2021/01/20 01:34:25;;;;;;;4.60;2.55;;;-1.40;94.50;;;;;;5122168;27;27399;-48
2021/01/20 01:37:14;;;;;;;5.80;2.63;;;-1.40;94.10;;;;;;5125933;27;27445;-47
2021/01/20 01:40:17;;;;;;;6.70;2.78;;;-1.40;94.20;;;;;;5125933;27;27567;-47
2021/01/20 01:43:23;;;;;;;3.47;2.65;;;-1.40;94.10;;;;;;5125422;27;27490;-49
2021/01/20 01:46:28;;;;;;;6.80;3.10;;;-1.30;94.10;;;;;;5122488;27;27465;-48
2021/01/20 01:49:31;;;;;;;4.03;2.65;;;-1.40;94.10;;;;;;5121796;27;27483;-47
2021/01/20 01:52:16;;;;;;;4.07;2.65;;;-1.40;94.10;;;;;;5125698;27;27411;-49
2021/01/20 01:55:20;;;;;;;4.10;2.38;;;-1.40;94.00;;;;;;5125659;27;27484;-47
2021/01/20 01:58:13;;;;;;;3.92;2.58;;;-1.40;94.00;;;;;;5124634;27;27424;-47
2021/01/20 02:01:03;;;;;;;3.63;2.13;;;-1.40;94.10;;;;;;5121504;27;27467;-46
2021/01/20 02:03:59;;;;;;;3.88;2.58;;;-1.40;94.00;;;;;;5122582;27;27366;-47
2021/01/20 02:06:54;;;;;;;3.35;2.22;;;-1.40;94.10;;;;;;5122721;27;27404;-47
2021/01/20 02:09:44;;;;;;;3.58;2.22;;;-1.50;94.10;;;;;;5122211;27;27452;-47
2021/01/20 02:12:29;;;;;;;4.40;2.67;;;-1.40;94.10;;;;;;5121544;27;27535;-44
2021/01/20 02:15:29;;;;;;;3.95;2.58;;;-1.40;94.00;;;;;;5107200;27;27391;-46
2021/01/20 02:18:16;;;;;;;4.97;2.42;;;-1.50;94.10;;;;;;5124950;27;27429;-46
2021/01/20 02:21:33;;;;;;;3.40;2.45;;;-1.50;94.20;;;;;;5110249;27;27471;-46
2021/01/20 02:25:10;;;;;;;4.07;2.33;;;-1.50;94.20;;;;;;5123740;27;27497;-46
2021/01/20 02:28:08;;;;;;;4.18;2.50;;;-1.50;94.30;;;;;;5121343;27;27461;-46
2021/01/20 02:31:03;;;;;;;3.88;2.30;;;-1.50;94.30;;;;;;5108063;27;27432;-46
2021/01/20 02:33:52;;;;;;;5.55;2.78;;;-1.50;94.30;;;;;;5124598;27;27339;-47
2021/01/20 02:36:44;;;;;;;4.15;2.70;;;-1.50;94.30;;;;;;5121738;27;27498;-48
2021/01/20 02:39:49;;;;;;;4.95;2.70;;;-1.50;94.40;;;;;;5112351;27;27605;-47
2021/01/20 02:42:59;;;;;;;3.63;2.60;;;-1.50;94.40;;;;;;5121082;27;27399;-47
2021/01/20 02:46:04;;;;;;;3.13;2.17;;;-1.40;94.50;;;;;;5121597;27;27441;-47
2021/01/20 02:48:49;;;;;;;4.68;2.30;;;-1.40;94.40;;;;;;5121493;27;27437;-47
2021/01/20 02:51:48;;;;;;;3.78;2.78;;;-1.40;94.40;;;;;;5120887;27;27457;-48
2021/01/20 02:54:52;;;;;;;4.05;2.88;;;-1.50;94.20;;;;;;5124422;27;27460;-48
2021/01/20 02:57:46;;;;;;;2.88;2.53;;;-1.50;94.20;;;;;;5124036;27;27492;-47
2021/01/20 03:00:38;;;;;;;3.17;2.67;;;-1.50;94.20;;;;;;5107172;27;27521;-46
2021/01/20 03:03:30;;;;;;;3.88;2.85;;;-1.50;94.10;;;;;;5124385;27;27388;-46
2021/01/20 03:06:16;;;;;;;2.92;2.63;;;-1.50;94.20;;;;;;5123661;27;27399;-46
2021/01/20 03:09:00;;;;;;;4.07;2.58;;;-1.50;94.10;;;;;;5124870;27;27374;-47
2021/01/20 03:11:49;;;;;;;5.25;3.58;;;-1.50;94.00;;;;;;5123843;27;27464;-47
2021/01/20 03:14:33;;;;;;;3.58;2.67;;;-1.60;94.10;;;;;;5124368;27;27405;-51
2021/01/20 03:17:18;;;;;;;4.63;2.70;;;-1.50;94.30;;;;;;5123838;27;27405;-47
2021/01/20 03:20:03;;;;;;;2.90;2.40;;;-1.50;94.40;;;;;;5124785;27;27867;-48
2021/01/20 03:22:47;;;;;;;4.65;2.97;;;-1.60;94.20;;;;;;5124201;27;27390;-47
2021/01/20 03:25:32;;;;;;;6.32;2.90;;;-1.50;94.20;;;;;;5124796;27;27382;-46
2021/01/20 03:28:16;;;;;;;3.58;2.75;;;-1.60;94.10;;;;;;5123960;27;27320;-47
2021/01/20 03:31:01;;;;;;;4.30;2.53;;;-1.60;94.20;;;;;;5124059;27;27344;-46
2021/01/20 03:33:45;;;;;;;3.35;2.55;;;-1.60;94.30;;;;;;5124270;27;27487;-47
2021/01/20 03:36:30;;;;;;;4.63;3.20;;;-1.60;94.30;;;;;;5127911;27;27396;-46
2021/01/20 03:39:15;;;;;;;3.97;2.75;;;-1.60;94.20;;;;;;5127413;27;27351;-46
2021/01/20 03:41:59;;;;;;;6.18;3.08;;;-1.60;94.20;;;;;;5127850;27;27876;-46
2021/01/20 03:44:43;;;;;;;6.43;2.58;;;-1.60;94.30;;;;;;5127991;27;27399;-47
2021/01/20 03:47:28;;;;;;;6.32;3.38;;;-1.60;94.40;;;;;;5127782;27;27429;-46
2021/01/20 03:50:12;;;;;;;5.65;3.88;;;-1.60;94.50;;;;;;5127576;27;27450;-46
2021/01/20 03:52:57;;;;;;;7.72;4.00;;;-1.60;94.40;;;;;;5127588;27;27942;-47
2021/01/20 03:55:41;;;;;;;5.63;3.50;;;-1.60;94.30;;;;;;5127503;27;27406;-48
2021/01/20 03:58:26;;;;;;;6.90;3.63;;;-1.60;94.20;;;;;;5127135;27;27454;-47
2021/01/20 04:01:10;;;;;;;5.80;4.05;;;-1.60;94.30;;;;;;5127036;27;27467;-47
2021/01/20 04:03:55;;;;;;;4.82;3.83;;;-1.60;94.30;;;;;;5127426;27;27478;-48
2021/01/20 04:06:45;;;;;;;5.07;3.97;;;-1.60;94.30;;;;;;5124997;27;27467;-47
2021/01/20 04:09:30;;;;;;;6.22;4.40;;;-1.60;94.20;;;;;;5127584;27;27339;-47
2021/01/20 04:12:14;;;;;;;5.97;4.60;;;-1.60;94.10;;;;;;5127300;27;27323;-48
2021/01/20 04:14:59;;;;;;;6.55;4.25;;;-1.60;94.20;;;;;;5127236;27;27397;-46
2021/01/20 04:17:43;;;;;;;9.07;4.65;;;-1.60;94.10;;;;;;5127475;27;27343;-46
2021/01/20 04:20:28;;;;;;;6.05;4.82;;;-1.60;94.20;;;;;;5127538;27;27426;-47
2021/01/20 04:23:12;;;;;;;4.68;4.18;;;-1.70;94.20;;;;;;5127413;27;27403;-47
2021/01/20 04:25:57;;;;;;;6.10;4.53;;;-1.70;94.20;;;;;;5127378;27;27394;-48
2021/01/20 04:28:41;;;;;;;7.70;4.93;;;-1.70;94.30;;;;;;5126671;27;27414;-47
2021/01/20 04:31:26;;;;;;;7.50;4.50;;;-1.60;94.30;;;;;;5127119;27;27471;-47
2021/01/20 04:34:11;;;;;;;6.95;4.57;;;-1.60;94.50;;;;;;5123705;27;27441;-49
2021/01/20 04:36:56;;;;;;;5.25;4.53;;;-1.60;94.50;;;;;;5126930;27;27460;-48
2021/01/20 04:39:40;;;;;;;6.13;4.60;;;-1.60;94.60;;;;;;5127089;27;27411;-47
2021/01/20 04:42:25;;;;;;;8.93;5.15;;;-1.60;94.60;;;;;;5127154;27;27423;-47
2021/01/20 04:45:09;;;;;;;6.85;4.57;;;-1.60;94.50;;;;;;5122157;27;27463;-48
2021/01/20 04:47:54;;;;;;;8.32;4.63;;;-1.60;94.60;;;;;;5127026;27;27430;-47
2021/01/20 04:50:39;;;;;;;6.72;4.32;;;-1.60;94.70;;;;;;5125900;27;27650;-46
2021/01/20 04:53:24;;;;;;;8.70;4.25;;;-1.60;94.60;;;;;;5122962;27;26938;-47
2021/01/20 04:56:12;;;;;;;5.90;4.30;;;-1.60;94.70;;;;;;5108419;27;27393;-46
2021/01/20 04:58:57;;;;;;;5.90;4.60;;;-1.60;94.80;;;;;;5123275;27;27413;-47
2021/01/20 05:01:42;;;;;;;5.80;4.28;;;-1.60;94.80;;;;;;5126007;27;27462;-47
2021/01/20 05:04:27;;;;;;;6.63;4.75;;;-1.60;94.80;;;;;;5111380;27;27355;-44
2021/01/20 05:07:12;;;;;;;7.10;4.32;;;-1.60;94.70;;;;;;5124359;27;26974;-47
2021/01/20 05:09:56;;;;;;;6.95;4.20;;;-1.60;94.80;;;;;;5126231;27;27457;-48
2021/01/20 05:12:41;;;;;;;4.97;3.95;;;-1.50;94.90;;;;;;5126628;27;27422;-47
2021/01/20 05:15:33;;;;;;;6.50;4.30;;;-1.50;94.90;;;;;;5126640;27;27437;-45
2021/01/20 05:18:17;;;;;;;6.97;4.50;;;-1.50;95.00;;;;;;5126262;27;27366;-46
2021/01/20 05:21:16;;;;;;;8.30;4.72;;;-1.50;95.10;;;;;;5124875;27;27336;-47
2021/01/20 05:24:20;;;;;;;7.03;4.82;;;-1.50;95.20;;;;;;5122414;27;27435;-48
2021/01/20 05:27:05;;;;;;;7.05;4.32;;;-1.40;95.20;;;;;;5126183;27;27407;-47
2021/01/20 05:30:00;;;;;;;7.50;4.43;;;-1.40;95.20;;;;;;5125933;27;27469;-48
2021/01/20 05:32:54;;;;;;;7.57;4.47;;;-1.40;95.30;;;;;;5126015;27;27879;-47
2021/01/20 05:35:39;;;;;;;6.22;4.03;;;-1.40;95.40;;;;;;5125910;27;27522;-47
2021/01/20 05:38:42;;;;;;;4.45;3.40;;;-1.30;95.40;;;;;;5126000;27;27325;-43
2021/01/20 05:41:30;;;;;;;6.32;4.80;;;-1.30;95.50;;;;;;5125905;27;27334;-48
2021/01/20 05:44:15;;;;;;;7.18;4.20;;;-1.30;95.50;;;;;;5125801;27;27434;-47
2021/01/20 05:47:10;;;;;;;5.35;3.90;;;-1.30;95.50;;;;;;5126052;27;27422;-47
2021/01/20 05:50:10;;;;;;;6.18;4.07;;;-1.30;95.50;;;;;;5124793;27;27503;-47
2021/01/20 05:53:05;;;;;;;5.57;4.22;;;-1.20;95.50;;;;;;5125809;27;27320;-47
2021/01/20 05:56:03;;;;;;;6.18;4.45;;;-1.20;95.50;;;;;;5125894;27;27328;-48
2021/01/20 05:58:48;;;;;;;6.28;4.30;;;-1.10;95.50;;;;;;5121473;27;27405;-49
2021/01/20 06:01:32;;;;;;;5.47;4.25;;;-1.10;95.50;;;;;;5125636;27;27393;-49
2021/01/20 06:04:17;;;;;;;5.43;3.78;;;-1.10;95.50;;;;;;5125069;27;27538;-49
2021/01/20 06:07:03;;;;;;;6.63;4.32;;;-1.10;95.50;;;;;;5124601;27;27876;-47
2021/01/20 06:09:47;;;;;;;7.18;4.53;;;-1.10;95.50;;;;;;5125500;27;27448;-50
2021/01/20 06:12:32;;;;;;;5.47;3.97;;;-1.00;95.50;;;;;;5125717;27;27393;-43
2021/01/20 06:15:17;;;;;;;5.95;4.32;;;-1.00;95.50;;;;;;5124534;27;27368;-46
2021/01/20 06:18:02;;;;;;;6.97;3.88;;;-1.00;95.50;;;;;;5121895;27;27392;-47
2021/01/20 06:20:46;;;;;;;7.50;4.30;;;-1.00;95.50;;;;;;5110104;27;27406;-51
2021/01/20 06:23:32;;;;;;;6.03;3.65;;;-1.00;95.50;;;;;;5109973;27;27391;-47
2021/01/20 06:26:16;;;;;;;5.93;3.75;;;-0.90;95.60;;;;;;5125243;27;27394;-46
2021/01/20 06:29:04;;;;;;;6.60;4.20;;;-0.90;95.60;;;;;;5124341;27;27338;-48
2021/01/20 06:31:49;;;;;;;5.00;3.58;;;-0.90;95.60;;;;;;5124101;27;27438;-47
2021/01/20 06:34:34;;;;;;;6.32;3.63;;;-0.90;95.60;;;;;;5109888;27;27485;-45
2021/01/20 06:37:36;;;;;;;6.50;3.88;;;-0.90;95.60;;;;;;5124619;27;27331;-47
2021/01/20 06:40:21;;;;;;;6.53;4.28;;;-0.90;95.60;;;;;;5125237;27;27976;-47
2021/01/20 06:43:35;;;;;;;5.85;4.03;;;-0.80;96.00;;;;;;5124958;27;27554;-47
2021/01/20 06:46:29;;;;;;;7.15;4.05;;;-0.90;95.60;;;;;;5124958;27;27378;-48
2021/01/20 06:49:14;;;;;;;6.75;4.47;;;-0.80;95.60;;;;;;5125109;27;27367;-49
2021/01/20 06:52:05;;;;;;;6.45;4.57;;;-0.80;95.60;;;;;;5125076;27;27975;-47
2021/01/20 06:54:50;;;;;;;7.50;4.50;;;-0.80;95.60;;;;;;5124665;27;27476;-47
2021/01/20 06:57:36;;;;;;;7.82;4.55;;;-0.80;95.60;;;;;;5125060;27;27450;-48
2021/01/20 07:00:22;;;;;;;10.70;5.80;;;-0.80;95.60;;;;;;5125066;27;27440;-47
2021/01/20 07:03:06;;;;;;;13.85;6.55;;;-0.70;95.60;;;;;;5124721;27;27421;-48
2021/01/20 07:05:51;;;;;;;11.98;5.85;;;-0.70;95.70;;;;;;5124440;27;27414;-44
2021/01/20 07:08:52;;;;;;;12.48;7.22;;;-0.70;95.70;;;;;;5125088;27;26997;-48
2021/01/20 07:11:55;;;;;;;15.85;6.57;;;-0.70;95.70;;;;;;5127990;27;27593;-48
2021/01/20 07:14:42;;;;;;;15.55;7.90;;;-0.70;95.70;;;;;;5128499;27;27360;-49
2021/01/20 07:17:29;;;;;;;15.90;7.53;;;-0.70;95.70;;;;;;5127372;27;27350;-47
2021/01/20 07:20:14;;;;;;;19.25;8.23;;;-0.70;95.70;;;;;;5113352;27;27381;-47
2021/01/20 07:22:59;;;;;;;19.55;10.02;;;-0.70;95.70;;;;;;5127592;27;27339;-48
2021/01/20 07:25:47;;;;;;;17.55;8.75;;;-0.60;95.70;;;;;;5127230;27;27413;-47
2021/01/20 07:28:32;;;;;;;18.48;10.52;;;-0.60;95.70;;;;;;5127821;27;27441;-44
2021/01/20 07:31:17;;;;;;;17.05;8.65;;;-0.60;95.70;;;;;;5127694;27;27490;-51
2021/01/20 07:34:02;;;;;;;16.85;8.55;;;-0.60;95.70;;;;;;5112652;27;27500;-46
2021/01/20 07:36:46;;;;;;;18.98;10.00;;;-0.50;95.70;;;;;;5128039;27;27454;-48
2021/01/20 07:39:31;;;;;;;18.17;9.52;;;-0.50;95.60;;;;;;5126531;27;27430;-46
2021/01/20 07:42:15;;;;;;;15.38;8.85;;;-0.50;95.50;;;;;;5123743;27;26921;-50
2021/01/20 07:45:00;;;;;;;19.05;9.25;;;-0.50;95.50;;;;;;5109479;27;27603;-45
2021/01/20 07:47:46;;;;;;;19.30;9.23;;;-0.40;95.50;;;;;;5127726;27;27404;-48
2021/01/20 07:50:46;;;;;;;18.33;9.48;;;-0.40;95.50;;;;;;5127443;27;27493;-46
2021/01/20 07:53:31;;;;;;;20.05;9.55;;;-0.40;95.50;;;;;;5124686;27;27372;-47
2021/01/20 07:56:16;;;;;;;16.27;8.10;;;-0.30;95.40;;;;;;5127191;27;27352;-47
2021/01/20 07:59:17;;;;;;;15.93;8.30;;;-0.30;95.40;;;;;;5112598;27;27382;-47
2021/01/20 08:02:08;;;;;;;19.35;8.63;;;-0.20;95.30;;;;;;5127553;27;27426;-48
2021/01/20 08:04:59;;;;;;;17.65;8.60;;;-0.10;95.20;;;;;;5127591;27;27409;-48
2021/01/20 08:07:44;;;;;;;17.55;8.98;;;0.00;95.10;;;;;;5126721;27;27605;-48
2021/01/20 08:10:29;;;;;;;18.48;7.97;;;0.00;95.00;;;;;;5127414;27;27354;-48
2021/01/20 08:13:14;;;;;;;15.02;8.25;;;0.10;94.90;;;;;;5127615;27;27465;-48
2021/01/20 08:15:59;;;;;;;15.77;8.43;;;0.10;94.90;;;;;;5126933;27;27370;-48
2021/01/20 08:18:45;;;;;;;15.15;8.13;;;0.20;94.90;;;;;;5112137;27;27409;-47
2021/01/20 08:21:29;;;;;;;16.85;8.15;;;0.30;94.80;;;;;;5126141;27;27323;-47
2021/01/20 08:24:20;;;;;;;15.57;8.18;;;0.30;94.80;;;;;;5127463;27;27412;-48
2021/01/20 08:27:05;;;;;;;15.07;8.30;;;0.40;94.70;;;;;;5127505;27;27453;-48
2021/01/20 08:29:53;;;;;;;16.17;8.30;;;0.50;94.70;;;;;;5126504;27;27469;-48
2021/01/20 08:32:53;;;;;;;13.73;7.22;;;0.60;94.70;;;;;;5127327;27;27453;-48
2021/01/20 08:35:38;;;;;;;16.75;8.65;;;0.60;94.60;;;;;;5126525;27;27408;-47
2021/01/20 08:38:27;;;;;;;16.40;7.82;;;0.70;94.70;;;;;;5127354;27;27339;-46
2021/01/20 08:41:12;;;;;;;16.55;8.20;;;0.70;94.50;;;;;;5126959;27;27415;-48
2021/01/20 08:44:15;;;;;;;16.38;8.27;;;0.80;94.50;;;;;;5126851;27;27921;-45
2021/01/20 08:47:00;;;;;;;17.33;8.32;;;0.90;94.50;;;;;;5126366;27;27439;-47
2021/01/20 08:49:50;;;;;;;13.93;7.72;;;0.90;94.30;;;;;;5126030;27;27473;-49
2021/01/20 08:53:08;;;;;;;13.30;7.95;;;1.00;94.30;;;;;;5126810;27;27401;-44
2021/01/20 08:55:54;;;;;;;15.35;8.45;;;1.10;94.20;;;;;;5126273;27;27327;-49
2021/01/20 08:58:39;;;;;;;17.15;8.25;;;1.10;94.00;;;;;;5126623;27;27417;-49
2021/01/20 09:01:26;;;;;;;15.65;7.82;;;1.20;94.00;;;;;;5126623;27;27355;-48
2021/01/20 09:04:10;;;;;;;15.82;7.70;;;1.30;93.90;;;;;;5126884;27;27460;-49
2021/01/20 09:06:55;;;;;;;16.13;8.07;;;1.40;93.80;;;;;;5125181;27;27490;-49
2021/01/20 09:09:39;;;;;;;14.93;8.13;;;1.40;93.80;;;;;;5126298;27;27496;-49
2021/01/20 09:12:24;;;;;;;12.68;7.57;;;1.50;93.70;;;;;;5126482;27;27444;-51
2021/01/20 09:15:09;;;;;;;15.68;7.53;;;1.60;93.50;;;;;;5125876;27;27408;-48
2021/01/20 09:17:54;;;;;;;13.52;7.95;;;1.70;93.40;;;;;;5126568;27;27390;-49
2021/01/20 09:20:38;;;;;;;14.02;8.35;;;1.70;93.00;;;;;;5126354;27;27417;-48
2021/01/20 09:23:23;;;;;;;15.95;8.77;;;1.80;92.90;;;;;;5126610;27;26912;-48
2021/01/20 09:26:08;;;;;;;15.38;8.40;;;1.90;92.90;;;;;;5122173;27;27331;-49
2021/01/20 09:28:53;;;;;;;16.75;9.27;;;2.00;92.80;;;;;;5125480;27;27852;-48
2021/01/20 09:31:37;;;;;;;12.88;8.32;;;2.10;92.80;;;;;;5125766;27;27358;-50
2021/01/20 09:34:22;;;;;;;13.35;7.95;;;2.20;92.70;;;;;;5125531;27;27421;-48
2021/01/20 09:37:07;;;;;;;15.52;8.98;;;2.30;92.70;;;;;;5126320;27;27332;-48
2021/01/20 09:39:51;;;;;;;14.55;8.48;;;2.40;92.60;;;;;;5125925;27;27863;-50
2021/01/20 09:42:36;;;;;;;14.57;8.45;;;2.50;92.40;;;;;;5125950;27;27399;-48
2021/01/20 09:45:26;;;;;;;15.60;8.65;;;2.70;92.20;;;;;;5126020;27;27369;-52
2021/01/20 09:48:11;;;;;;;15.73;8.98;;;2.80;92.00;;;;;;5126125;27;27406;-48
2021/01/20 09:50:56;;;;;;;15.07;9.23;;;2.90;91.60;;;;;;5125771;27;27457;-49
2021/01/20 09:53:40;;;;;;;12.68;8.68;;;3.10;91.50;;;;;;5125048;27;27556;-48
2021/01/20 09:56:25;;;;;;;15.30;9.27;;;3.20;91.20;;;;;;5126006;27;27468;-49
2021/01/20 09:59:09;;;;;;;14.38;8.70;;;3.30;90.80;;;;;;5122385;27;27423;-49
2021/01/20 10:01:54;;;;;;;14.00;8.77;;;3.50;90.40;;;;;;5125784;27;27989;-49
2021/01/20 10:04:38;;;;;;;14.35;8.95;;;3.70;90.10;;;;;;5125869;27;27516;-47
2021/01/20 10:07:23;;;;;;;15.45;9.45;;;3.90;89.60;;;;;;5124814;27;27359;-51
2021/01/20 10:10:13;;;;;;;14.93;8.95;;;4.00;89.00;;;;;;5125349;27;26909;-49
2021/01/20 10:12:59;;;;;;;10.98;8.10;;;4.20;88.50;;;;;;5124831;27;27529;-50
2021/01/20 10:15:43;;;;;;;17.42;9.50;;;4.40;88.00;;;;;;5125596;27;27419;-49
2021/01/20 10:18:28;;;;;;;12.68;7.75;;;4.50;87.50;;;;;;5126401;27;27476;-47
2021/01/20 10:21:12;;;;;;;15.05;8.60;;;4.70;87.10;;;;;;5127787;27;27458;-52
2021/01/20 10:23:57;;;;;;;14.82;9.23;;;4.80;86.60;;;;;;5125089;27;27457;-47
2021/01/20 10:26:41;;;;;;;16.55;8.65;;;5.00;86.40;;;;;;5125479;27;27442;-48
2021/01/20 10:29:26;;;;;;;14.88;8.23;;;5.10;86.10;;;;;;5125397;27;27500;-48
2021/01/20 10:32:11;;;;;;;13.57;8.20;;;5.20;85.40;;;;;;5125334;27;27476;-50
2021/01/20 10:34:56;;;;;;;15.48;8.55;;;5.30;85.30;;;;;;5125281;27;27426;-50
2021/01/20 10:37:41;;;;;;;13.77;8.18;;;5.50;85.10;;;;;;5125554;27;27520;-48
2021/01/20 10:40:26;;;;;;;13.18;7.10;;;5.60;84.70;;;;;;5122628;27;27537;-49
2021/01/20 10:43:11;;;;;;;11.85;7.90;;;5.70;84.90;;;;;;5125737;27;27449;-50
2021/01/20 10:45:58;;;;;;;15.15;9.07;;;5.70;84.60;;;;;;5125534;27;27461;-50
2021/01/20 10:48:43;;;;;;;12.05;7.90;;;5.80;84.50;;;;;;5125057;27;27480;-48
2021/01/20 10:51:29;;;;;;;11.50;8.13;;;5.90;84.40;;;;;;5126076;27;27556;-52
2021/01/20 10:54:14;;;;;;;10.20;7.60;;;6.00;84.30;;;;;;5126285;27;27473;-48
2021/01/20 10:56:59;;;;;;;13.38;8.45;;;6.10;84.10;;;;;;5125340;27;27492;-48
2021/01/20 10:59:44;;;;;;;12.68;8.02;;;6.10;84.10;;;;;;5122071;27;27331;-48
2021/01/20 11:02:29;;;;;;;11.80;7.43;;;6.20;84.00;;;;;;5125195;27;27411;-49
2021/01/20 11:05:14;;;;;;;14.20;7.78;;;6.20;83.80;;;;;;5124742;27;27491;-48
2021/01/20 11:07:58;;;;;;;12.00;7.65;;;6.30;83.80;;;;;;5123842;27;27965;-49
2021/01/20 11:10:42;;;;;;;16.85;7.45;;;6.30;83.80;;;;;;5123954;27;27438;-48
2021/01/20 11:13:27;;;;;;;12.07;7.47;;;6.30;83.90;;;;;;5125010;27;27465;-49
2021/01/20 11:16:12;;;;;;;12.50;7.55;;;6.30;84.00;;;;;;5124577;27;27489;-49
2021/01/20 11:18:57;;;;;;;11.15;6.88;;;6.30;84.00;;;;;;5121232;27;27464;-48
2021/01/20 11:21:41;;;;;;;13.57;7.45;;;6.30;84.10;;;;;;5124502;27;27430;-47
2021/01/20 11:24:26;;;;;;;14.98;7.75;;;6.30;84.10;;;;;;5124746;27;27427;-50
2021/01/20 11:27:10;;;;;;;11.55;7.30;;;6.30;84.40;;;;;;5123705;27;27491;-48
2021/01/20 11:29:55;;;;;;;10.02;6.28;;;6.30;84.50;;;;;;5124241;27;27438;-47
2021/01/20 11:32:39;;;;;;;10.38;6.95;;;6.30;84.40;;;;;;5124394;27;27478;-45
2021/01/20 11:35:24;;;;;;;13.98;7.07;;;6.30;84.40;;;;;;5124485;27;27450;-48
2021/01/20 11:38:09;;;;;;;9.75;6.65;;;6.30;84.50;;;;;;5124402;27;27385;-50
2021/01/20 11:40:53;;;;;;;10.65;6.32;;;6.30;84.40;;;;;;5124278;27;27366;-48
2021/01/20 11:43:38;;;;;;;11.80;6.72;;;6.30;84.40;;;;;;5123606;27;27415;-49
2021/01/20 11:46:22;;;;;;;13.60;7.25;;;6.30;84.50;;;;;;5123582;27;27340;-45
2021/01/20 11:49:09;;;;;;;9.50;6.70;;;6.40;84.50;;;;;;5124412;27;27377;-48
2021/01/20 11:51:54;;;;;;;10.60;6.50;;;6.40;84.20;;;;;;5124266;27;27433;-50
2021/01/20 11:54:38;;;;;;;10.07;5.93;;;6.40;84.40;;;;;;5124370;27;27393;-48
2021/01/20 11:57:23;;;;;;;14.57;7.60;;;6.50;84.10;;;;;;5127684;27;27312;-49
2021/01/20 12:00:09;;;;;;;9.57;6.55;;;6.50;84.00;;;;;;5127570;27;27374;-48
2021/01/20 12:02:56;;;;;;;7.95;5.72;;;6.60;84.10;;;;;;5127288;27;27492;-48
2021/01/20 12:05:40;;;;;;;10.20;6.22;;;6.60;83.80;;;;;;5127519;27;27470;-50
2021/01/20 12:08:24;;;;;;;10.48;6.32;;;6.70;83.70;;;;;;5127805;27;27456;-51
2021/01/20 12:11:09;;;;;;;9.05;6.30;;;6.70;83.70;;;;;;5126941;27;27376;-48
2021/01/20 12:13:53;;;;;;;9.75;6.32;;;6.80;83.40;;;;;;5127372;27;27371;-50
2021/01/20 12:16:39;;;;;;;10.35;6.43;;;6.80;83.30;;;;;;5127701;27;27385;-47
2021/01/20 12:19:23;;;;;;;8.30;6.03;;;6.90;83.10;;;;;;5127667;27;27429;-47
2021/01/20 12:22:08;;;;;;;8.68;5.90;;;6.90;83.00;;;;;;5127570;27;27377;-47
2021/01/20 12:24:52;;;;;;;11.60;6.03;;;7.00;82.90;;;;;;5127524;27;27327;-49
2021/01/20 12:27:39;;;;;;;7.45;5.53;;;7.10;83.00;;;;;;5127171;27;27365;-47
2021/01/20 12:30:24;;;;;;;9.30;6.40;;;7.10;82.80;;;;;;5127291;27;27363;-47
2021/01/20 12:33:08;;;;;;;8.90;6.00;;;7.10;82.60;;;;;;5127235;27;27435;-47
2021/01/20 12:35:52;;;;;;;10.85;6.90;;;7.10;82.80;;;;;;5127395;27;27326;-47
2021/01/20 12:38:37;;;;;;;11.90;7.03;;;7.10;82.60;;;;;;5126548;27;27334;-48
2021/01/20 12:41:21;;;;;;;10.07;6.38;;;7.10;82.90;;;;;;5127034;27;27339;-47
2021/01/20 12:44:06;;;;;;;8.15;5.85;;;7.10;82.60;;;;;;5127296;27;27389;-47
2021/01/20 12:46:51;;;;;;;11.02;5.57;;;7.10;82.60;;;;;;5127183;27;27397;-47
2021/01/20 12:49:36;;;;;;;8.50;5.40;;;7.20;82.60;;;;;;5127087;27;27398;-47
2021/01/20 12:52:20;;;;;;;9.82;5.63;;;7.20;82.60;;;;;;5126922;27;27396;-48
2021/01/20 12:55:06;;;;;;;7.75;5.22;;;7.20;82.60;;;;;;5126770;27;27418;-48
2021/01/20 12:57:50;;;;;;;8.93;5.72;;;7.20;82.60;;;;;;5125950;27;28016;-48
2021/01/20 13:00:35;;;;;;;9.50;5.57;;;7.30;82.50;;;;;;5126943;27;27408;-52
2021/01/20 13:03:19;;;;;;;10.77;5.70;;;7.40;82.30;;;;;;5127142;27;27403;-47
2021/01/20 13:06:06;;;;;;;5.80;4.63;;;7.40;82.20;;;;;;5122927;27;27399;-50
2021/01/20 13:08:51;;;;;;;8.30;5.15;;;7.50;81.90;;;;;;5126569;27;27975;-49
2021/01/20 13:11:35;;;;;;;8.27;5.38;;;7.60;81.90;;;;;;5125995;27;27442;-47
2021/01/20 13:14:20;;;;;;;7.25;5.57;;;7.70;81.60;;;;;;5126705;27;27389;-50
2021/01/20 13:17:05;;;;;;;7.90;5.00;;;7.80;81.10;;;;;;5126307;27;27486;-48
2021/01/20 13:19:49;;;;;;;6.90;4.57;;;7.80;81.10;;;;;;5126147;27;28085;-47
2021/01/20 13:22:34;;;;;;;6.75;4.53;;;7.90;81.00;;;;;;5126368;27;27471;-47
2021/01/20 13:25:21;;;;;;;7.13;4.72;;;7.90;80.70;;;;;;5126426;27;27383;-47
2021/01/20 13:28:05;;;;;;;8.43;5.50;;;7.90;80.80;;;;;;5126314;27;27353;-48
2021/01/20 13:30:51;;;;;;;8.73;5.00;;;7.90;80.70;;;;;;5125385;27;27393;-49
2021/01/20 13:33:35;;;;;;;8.07;5.13;;;7.90;80.80;;;;;;5126008;27;27410;-47
2021/01/20 13:36:20;;;;;;;6.80;4.25;;;7.90;80.90;;;;;;5126032;27;27335;-48
2021/01/20 13:39:05;;;;;;;7.88;5.30;;;7.80;80.80;;;;;;5125134;27;27333;-49
2021/01/20 13:41:49;;;;;;;6.63;4.47;;;7.80;81.00;;;;;;5126033;27;27965;-44
2021/01/20 13:44:34;;;;;;;10.95;4.70;;;7.70;81.00;;;;;;5125786;27;27500;-47
2021/01/20 13:47:18;;;;;;;7.65;4.60;;;7.70;81.30;;;;;;5125857;27;27443;-48
2021/01/20 13:50:04;;;;;;;6.05;4.70;;;7.60;81.40;;;;;;5125676;27;27462;-48
2021/01/20 13:52:48;;;;;;;8.52;5.00;;;7.50;81.70;;;;;;5125940;27;27469;-49
2021/01/20 13:55:32;;;;;;;9.50;4.50;;;7.40;81.90;;;;;;5125562;27;27471;-47
2021/01/20 13:58:17;;;;;;;7.32;4.43;;;7.30;82.30;;;;;;5126089;27;27407;-48
2021/01/20 14:01:01;;;;;;;9.23;4.50;;;7.20;82.50;;;;;;5122595;27;27399;-49
2021/01/20 14:03:46;;;;;;;8.73;4.82;;;7.10;82.90;;;;;;5125620;27;27488;-47
2021/01/20 14:06:30;;;;;;;6.88;4.50;;;7.00;83.10;;;;;;5125015;27;27435;-49
2021/01/20 14:09:15;;;;;;;9.10;4.47;;;6.90;83.40;;;;;;5125850;27;27484;-49
2021/01/20 14:11:59;;;;;;;6.13;4.03;;;6.90;83.70;;;;;;5125504;27;27491;-49
2021/01/20 14:14:44;;;;;;;6.68;4.50;;;6.80;83.90;;;;;;5122069;27;27968;-46
2021/01/20 14:17:29;;;;;;;5.75;4.13;;;6.70;84.00;;;;;;5125274;27;27531;-48
2021/01/20 14:20:13;;;;;;;5.20;3.65;;;6.60;84.20;;;;;;5122164;27;27424;-46
2021/01/20 14:22:58;;;;;;;6.45;3.80;;;6.60;84.40;;;;;;5125289;27;27347;-47
2021/01/20 14:25:43;;;;;;;5.57;3.90;;;6.50;84.60;;;;;;5124716;27;27573;-52
2021/01/20 14:28:28;;;;;;;5.57;4.10;;;6.40;84.90;;;;;;5125554;27;27441;-47
2021/01/20 14:31:12;;;;;;;6.07;3.80;;;6.40;85.00;;;;;;5125303;27;26885;-47